sensor_id;sensor_type;location;lat;lon;timestamp;temperature;humidity
25554;DHT22;13446;50.926;5.332;2022-09-13T00:00:35;21.10;99.90
25554;DHT22;13446;50.926;5.332;2022-09-13T00:03:01;21.00;99.90
25554;DHT22;13446;50.926;5.332;2022-09-13T00:05:26;21.00;99.90
25554;DHT22;13446;50.926;5.332;2022-09-13T00:07:52;21.00;99.90
25554;DHT22;13446;50.926;5.332;2022-09-13T00:10:17;21.00;99.90
25554;DHT22;13446;50.926;5.332;2022-09-13T00:12:43;21.10;99.90
25554;DHT22;13446;50.926;5.332;2022-09-13T00:15:10;21.00;99.90
25554;DHT22;13446;50.926;5.332;2022-09-13T00:17:36;21.00;99.90
25554;DHT22;13446;50.926;5.332;2022-09-13T00:20:02;21.00;99.90
25554;DHT22;13446;50.926;5.332;2022-09-13T00:22:28;20.90;99.90
25554;DHT22;13446;50.926;5.332;2022-09-13T00:24:53;20.80;99.90
25554;DHT22;13446;50.926;5.332;2022-09-13T00:27:19;20.70;99.90
25554;DHT22;13446;50.926;5.332;2022-09-13T00:29:44;20.70;99.90
25554;DHT22;13446;50.926;5.332;2022-09-13T00:32:10;20.60;99.90
25554;DHT22;13446;50.926;5.332;2022-09-13T00:34:36;20.50;99.90
25554;DHT22;13446;50.926;5.332;2022-09-13T00:37:01;20.60;99.90
25554;DHT22;13446;50.926;5.332;2022-09-13T00:39:27;20.50;99.90
25554;DHT22;13446;50.926;5.332;2022-09-13T00:41:52;20.50;99.90
25554;DHT22;13446;50.926;5.332;2022-09-13T00:47:02;20.40;99.90
25554;DHT22;13446;50.926;5.332;2022-09-13T00:49:33;20.20;99.90
25554;DHT22;13446;50.926;5.332;2022-09-13T00:52:02;20.20;99.90
25554;DHT22;13446;50.926;5.332;2022-09-13T00:54:30;20.10;99.90
25554;DHT22;13446;50.926;5.332;2022-09-13T00:57:00;20.10;99.90
25554;DHT22;13446;50.926;5.332;2022-09-13T00:59:28;20.20;99.90
25554;DHT22;13446;50.926;5.332;2022-09-13T01:01:55;20.20;99.90
25554;DHT22;13446;50.926;5.332;2022-09-13T01:04:21;20.20;99.90
25554;DHT22;13446;50.926;5.332;2022-09-13T01:06:49;20.20;99.90
25554;DHT22;13446;50.926;5.332;2022-09-13T01:09:16;20.30;99.90
25554;DHT22;13446;50.926;5.332;2022-09-13T01:11:46;20.30;99.90
25554;DHT22;13446;50.926;5.332;2022-09-13T01:14:17;20.30;99.90
25554;DHT22;13446;50.926;5.332;2022-09-13T01:16:44;20.40;99.90
25554;DHT22;13446;50.926;5.332;2022-09-13T01:19:09;20.30;99.90
25554;DHT22;13446;50.926;5.332;2022-09-13T01:29:26;20.30;99.90
25554;DHT22;13446;50.926;5.332;2022-09-13T01:39:22;20.00;99.90
25554;DHT22;13446;50.926;5.332;2022-09-13T01:44:26;20.20;99.90
25554;DHT22;13446;50.926;5.332;2022-09-13T01:54:35;20.10;99.90
25554;DHT22;13446;50.926;5.332;2022-09-13T02:02:01;20.20;99.90
25554;DHT22;13446;50.926;5.332;2022-09-13T02:04:32;20.30;99.90
25554;DHT22;13446;50.926;5.332;2022-09-13T02:07:02;20.40;99.90
25554;DHT22;13446;50.926;5.332;2022-09-13T02:09:31;20.40;99.90
25554;DHT22;13446;50.926;5.332;2022-09-13T02:12:00;20.30;99.90
25554;DHT22;13446;50.926;5.332;2022-09-13T02:14:29;20.20;99.90
25554;DHT22;13446;50.926;5.332;2022-09-13T02:17:05;20.20;99.90
25554;DHT22;13446;50.926;5.332;2022-09-13T02:19:35;20.30;99.90
25554;DHT22;13446;50.926;5.332;2022-09-13T02:22:02;20.30;99.90
25554;DHT22;13446;50.926;5.332;2022-09-13T02:24:36;20.40;99.90
25554;DHT22;13446;50.926;5.332;2022-09-13T02:27:05;20.40;99.90
25554;DHT22;13446;50.926;5.332;2022-09-13T02:29:31;20.40;99.90
25554;DHT22;13446;50.926;5.332;2022-09-13T02:31:59;20.30;99.90
25554;DHT22;13446;50.926;5.332;2022-09-13T02:34:30;20.30;99.90
25554;DHT22;13446;50.926;5.332;2022-09-13T02:36:57;20.30;99.90
25554;DHT22;13446;50.926;5.332;2022-09-13T02:39:25;20.30;99.90
25554;DHT22;13446;50.926;5.332;2022-09-13T02:41:55;20.30;99.90
25554;DHT22;13446;50.926;5.332;2022-09-13T02:44:34;20.30;99.90
25554;DHT22;13446;50.926;5.332;2022-09-13T02:50:06;20.40;99.90
25554;DHT22;13446;50.926;5.332;2022-09-13T02:55:24;20.30;99.90
25554;DHT22;13446;50.926;5.332;2022-09-13T02:57:59;20.30;99.90
25554;DHT22;13446;50.926;5.332;2022-09-13T03:00:26;20.30;99.90
25554;DHT22;13446;50.926;5.332;2022-09-13T03:02:53;20.20;99.90
25554;DHT22;13446;50.926;5.332;2022-09-13T03:05:21;20.30;99.90
25554;DHT22;13446;50.926;5.332;2022-09-13T03:07:46;20.20;99.90
25554;DHT22;13446;50.926;5.332;2022-09-13T03:10:13;20.20;99.90
25554;DHT22;13446;50.926;5.332;2022-09-13T03:15:09;20.20;99.90
25554;DHT22;13446;50.926;5.332;2022-09-13T03:25:39;20.20;99.90
25554;DHT22;13446;50.926;5.332;2022-09-13T03:30:58;20.20;99.90
25554;DHT22;13446;50.926;5.332;2022-09-13T03:33:30;20.20;99.90
25554;DHT22;13446;50.926;5.332;2022-09-13T03:36:00;20.10;99.90
25554;DHT22;13446;50.926;5.332;2022-09-13T03:38:53;20.10;99.90
25554;DHT22;13446;50.926;5.332;2022-09-13T03:41:16;20.10;99.90
25554;DHT22;13446;50.926;5.332;2022-09-13T03:43:44;20.20;99.90
25554;DHT22;13446;50.926;5.332;2022-09-13T03:46:16;20.20;99.90
25554;DHT22;13446;50.926;5.332;2022-09-13T03:48:43;20.20;99.90
25554;DHT22;13446;50.926;5.332;2022-09-13T03:51:10;20.20;99.90
25554;DHT22;13446;50.926;5.332;2022-09-13T03:53:38;20.30;99.90
25554;DHT22;13446;50.926;5.332;2022-09-13T03:56:15;20.20;99.90
25554;DHT22;13446;50.926;5.332;2022-09-13T03:58:40;20.20;99.90
25554;DHT22;13446;50.926;5.332;2022-09-13T04:01:06;20.20;99.90
25554;DHT22;13446;50.926;5.332;2022-09-13T04:03:32;20.20;99.90
25554;DHT22;13446;50.926;5.332;2022-09-13T04:05:58;20.20;99.90
25554;DHT22;13446;50.926;5.332;2022-09-13T04:08:23;20.20;99.90
25554;DHT22;13446;50.926;5.332;2022-09-13T04:10:49;20.20;99.90
25554;DHT22;13446;50.926;5.332;2022-09-13T04:13:14;20.20;99.90
25554;DHT22;13446;50.926;5.332;2022-09-13T04:15:44;20.20;99.90
25554;DHT22;13446;50.926;5.332;2022-09-13T04:18:09;20.20;99.90
25554;DHT22;13446;50.926;5.332;2022-09-13T04:20:37;20.10;99.90
25554;DHT22;13446;50.926;5.332;2022-09-13T04:23:03;20.10;99.90
25554;DHT22;13446;50.926;5.332;2022-09-13T04:25:29;20.00;99.90
25554;DHT22;13446;50.926;5.332;2022-09-13T04:27:55;20.00;99.90
25554;DHT22;13446;50.926;5.332;2022-09-13T04:30:24;20.10;99.90
25554;DHT22;13446;50.926;5.332;2022-09-13T04:32:51;20.10;99.90
25554;DHT22;13446;50.926;5.332;2022-09-13T04:35:16;20.10;99.90
25554;DHT22;13446;50.926;5.332;2022-09-13T04:37:44;20.10;99.90
25554;DHT22;13446;50.926;5.332;2022-09-13T04:40:09;20.10;99.90
25554;DHT22;13446;50.926;5.332;2022-09-13T04:42:35;20.20;99.90
25554;DHT22;13446;50.926;5.332;2022-09-13T04:45:01;20.10;99.90
25554;DHT22;13446;50.926;5.332;2022-09-13T04:47:26;20.10;99.90
25554;DHT22;13446;50.926;5.332;2022-09-13T04:49:52;20.10;99.90
25554;DHT22;13446;50.926;5.332;2022-09-13T04:52:18;20.10;99.90
25554;DHT22;13446;50.926;5.332;2022-09-13T04:54:44;20.00;99.90
25554;DHT22;13446;50.926;5.332;2022-09-13T04:57:09;20.00;99.90
25554;DHT22;13446;50.926;5.332;2022-09-13T04:59:35;20.00;99.90
25554;DHT22;13446;50.926;5.332;2022-09-13T05:02:01;20.00;99.90
25554;DHT22;13446;50.926;5.332;2022-09-13T05:04:27;20.00;99.90
25554;DHT22;13446;50.926;5.332;2022-09-13T05:06:52;20.00;99.90
25554;DHT22;13446;50.926;5.332;2022-09-13T05:09:18;19.80;99.90
25554;DHT22;13446;50.926;5.332;2022-09-13T05:11:43;19.80;99.90
25554;DHT22;13446;50.926;5.332;2022-09-13T05:14:09;19.90;99.90
25554;DHT22;13446;50.926;5.332;2022-09-13T05:16:35;20.00;99.90
25554;DHT22;13446;50.926;5.332;2022-09-13T05:19:00;19.90;99.90
25554;DHT22;13446;50.926;5.332;2022-09-13T05:21:26;19.90;99.90
25554;DHT22;13446;50.926;5.332;2022-09-13T05:23:52;19.80;99.90
25554;DHT22;13446;50.926;5.332;2022-09-13T05:26:19;19.90;99.90
25554;DHT22;13446;50.926;5.332;2022-09-13T05:28:44;20.00;99.90
25554;DHT22;13446;50.926;5.332;2022-09-13T05:31:18;20.00;99.90
25554;DHT22;13446;50.926;5.332;2022-09-13T05:33:44;19.90;99.90
25554;DHT22;13446;50.926;5.332;2022-09-13T05:36:10;20.00;99.90
25554;DHT22;13446;50.926;5.332;2022-09-13T05:38:35;20.00;99.90
25554;DHT22;13446;50.926;5.332;2022-09-13T05:41:02;20.10;99.90
25554;DHT22;13446;50.926;5.332;2022-09-13T05:43:29;20.00;99.90
25554;DHT22;13446;50.926;5.332;2022-09-13T05:46:02;20.00;99.90
25554;DHT22;13446;50.926;5.332;2022-09-13T05:48:28;20.00;99.90
25554;DHT22;13446;50.926;5.332;2022-09-13T05:50:54;20.10;99.90
25554;DHT22;13446;50.926;5.332;2022-09-13T05:53:19;20.20;99.90
25554;DHT22;13446;50.926;5.332;2022-09-13T05:55:45;20.30;99.90
25554;DHT22;13446;50.926;5.332;2022-09-13T05:58:11;20.30;99.90
25554;DHT22;13446;50.926;5.332;2022-09-13T06:00:36;20.30;99.90
25554;DHT22;13446;50.926;5.332;2022-09-13T06:03:02;20.30;99.90
25554;DHT22;13446;50.926;5.332;2022-09-13T06:05:27;20.30;99.90
25554;DHT22;13446;50.926;5.332;2022-09-13T06:07:53;20.30;99.90
25554;DHT22;13446;50.926;5.332;2022-09-13T06:10:18;20.10;99.90
25554;DHT22;13446;50.926;5.332;2022-09-13T06:12:45;20.00;99.90
25554;DHT22;13446;50.926;5.332;2022-09-13T06:15:10;20.10;99.90
25554;DHT22;13446;50.926;5.332;2022-09-13T06:17:36;20.20;99.90
25554;DHT22;13446;50.926;5.332;2022-09-13T06:20:01;20.30;99.90
25554;DHT22;13446;50.926;5.332;2022-09-13T06:22:27;20.40;99.90
25554;DHT22;13446;50.926;5.332;2022-09-13T06:25:00;20.40;99.90
25554;DHT22;13446;50.926;5.332;2022-09-13T06:27:26;20.40;99.90
25554;DHT22;13446;50.926;5.332;2022-09-13T06:29:53;20.40;99.90
25554;DHT22;13446;50.926;5.332;2022-09-13T06:32:19;20.50;99.90
25554;DHT22;13446;50.926;5.332;2022-09-13T06:34:45;20.50;99.90
25554;DHT22;13446;50.926;5.332;2022-09-13T06:37:11;20.60;99.90
25554;DHT22;13446;50.926;5.332;2022-09-13T06:39:37;20.60;99.90
25554;DHT22;13446;50.926;5.332;2022-09-13T06:42:02;20.60;99.90
25554;DHT22;13446;50.926;5.332;2022-09-13T06:44:28;20.60;99.90
25554;DHT22;13446;50.926;5.332;2022-09-13T06:46:55;20.60;99.90
25554;DHT22;13446;50.926;5.332;2022-09-13T06:49:20;20.60;99.90
25554;DHT22;13446;50.926;5.332;2022-09-13T06:51:46;20.60;99.90
25554;DHT22;13446;50.926;5.332;2022-09-13T06:54:11;20.50;99.90
25554;DHT22;13446;50.926;5.332;2022-09-13T06:56:37;20.60;99.90
25554;DHT22;13446;50.926;5.332;2022-09-13T06:59:04;20.70;99.90
25554;DHT22;13446;50.926;5.332;2022-09-13T07:01:31;20.80;99.90
25554;DHT22;13446;50.926;5.332;2022-09-13T07:03:57;20.80;99.90
25554;DHT22;13446;50.926;5.332;2022-09-13T07:06:24;21.00;99.90
25554;DHT22;13446;50.926;5.332;2022-09-13T07:08:51;21.10;99.90
25554;DHT22;13446;50.926;5.332;2022-09-13T07:11:18;21.10;99.90
25554;DHT22;13446;50.926;5.332;2022-09-13T07:13:51;21.30;99.90
25554;DHT22;13446;50.926;5.332;2022-09-13T07:16:18;21.40;99.90
25554;DHT22;13446;50.926;5.332;2022-09-13T07:18:45;21.60;99.90
25554;DHT22;13446;50.926;5.332;2022-09-13T07:21:14;21.70;99.90
25554;DHT22;13446;50.926;5.332;2022-09-13T07:23:42;21.80;99.90
25554;DHT22;13446;50.926;5.332;2022-09-13T07:26:08;21.90;99.90
25554;DHT22;13446;50.926;5.332;2022-09-13T07:28:37;22.20;99.90
25554;DHT22;13446;50.926;5.332;2022-09-13T07:31:07;22.40;99.90
25554;DHT22;13446;50.926;5.332;2022-09-13T07:33:32;22.60;99.90
25554;DHT22;13446;50.926;5.332;2022-09-13T07:35:58;23.00;99.90
25554;DHT22;13446;50.926;5.332;2022-09-13T07:38:25;23.30;99.90
25554;DHT22;13446;50.926;5.332;2022-09-13T07:40:54;23.90;99.90
25554;DHT22;13446;50.926;5.332;2022-09-13T07:43:21;24.40;99.90
25554;DHT22;13446;50.926;5.332;2022-09-13T07:45:46;24.90;99.90
25554;DHT22;13446;50.926;5.332;2022-09-13T07:48:13;25.30;99.90
25554;DHT22;13446;50.926;5.332;2022-09-13T07:50:39;25.90;99.90
25554;DHT22;13446;50.926;5.332;2022-09-13T07:53:05;26.50;99.90
25554;DHT22;13446;50.926;5.332;2022-09-13T07:55:30;26.50;99.90
25554;DHT22;13446;50.926;5.332;2022-09-13T07:57:56;27.10;99.10
25554;DHT22;13446;50.926;5.332;2022-09-13T08:00:22;27.50;97.60
25554;DHT22;13446;50.926;5.332;2022-09-13T08:02:48;27.60;97.20
25554;DHT22;13446;50.926;5.332;2022-09-13T08:05:13;27.90;96.30
25554;DHT22;13446;50.926;5.332;2022-09-13T08:07:39;28.00;95.60
25554;DHT22;13446;50.926;5.332;2022-09-13T08:10:05;28.20;95.20
25554;DHT22;13446;50.926;5.332;2022-09-13T08:12:30;28.00;95.20
25554;DHT22;13446;50.926;5.332;2022-09-13T08:14:56;27.70;94.90
25554;DHT22;13446;50.926;5.332;2022-09-13T08:17:21;27.20;96.10
25554;DHT22;13446;50.926;5.332;2022-09-13T08:19:47;28.30;95.00
25554;DHT22;13446;50.926;5.332;2022-09-13T08:22:12;29.70;92.50
25554;DHT22;13446;50.926;5.332;2022-09-13T08:24:38;30.60;90.10
25554;DHT22;13446;50.926;5.332;2022-09-13T08:27:03;31.50;85.60
25554;DHT22;13446;50.926;5.332;2022-09-13T08:29:29;32.90;77.20
25554;DHT22;13446;50.926;5.332;2022-09-13T08:31:55;33.90;70.00
25554;DHT22;13446;50.926;5.332;2022-09-13T08:34:21;33.80;69.40
25554;DHT22;13446;50.926;5.332;2022-09-13T08:36:46;35.20;62.90
25554;DHT22;13446;50.926;5.332;2022-09-13T08:39:12;34.50;60.10
25554;DHT22;13446;50.926;5.332;2022-09-13T08:49:07;37.60;52.80
25554;DHT22;13446;50.926;5.332;2022-09-13T08:51:45;35.50;54.50
25554;DHT22;13446;50.926;5.332;2022-09-13T08:54:13;37.10;53.20
25554;DHT22;13446;50.926;5.332;2022-09-13T09:04:42;38.30;47.10
25554;DHT22;13446;50.926;5.332;2022-09-13T09:07:16;38.40;46.30
25554;DHT22;13446;50.926;5.332;2022-09-13T09:09:50;38.20;46.40
25554;DHT22;13446;50.926;5.332;2022-09-13T09:14:56;36.20;50.90
25554;DHT22;13446;50.926;5.332;2022-09-13T09:17:24;34.80;51.40
25554;DHT22;13446;50.926;5.332;2022-09-13T09:20:13;35.50;51.90
25554;DHT22;13446;50.926;5.332;2022-09-13T09:22:40;36.70;50.20
25554;DHT22;13446;50.926;5.332;2022-09-13T09:25:07;35.70;50.40
25554;DHT22;13446;50.926;5.332;2022-09-13T09:27:35;36.40;49.80
25554;DHT22;13446;50.926;5.332;2022-09-13T09:30:00;35.30;49.10
25554;DHT22;13446;50.926;5.332;2022-09-13T09:37:56;33.30;54.30
25554;DHT22;13446;50.926;5.332;2022-09-13T09:40:29;33.20;55.70
25554;DHT22;13446;50.926;5.332;2022-09-13T09:42:56;33.00;55.70
25554;DHT22;13446;50.926;5.332;2022-09-13T09:45:24;32.90;55.20
25554;DHT22;13446;50.926;5.332;2022-09-13T09:47:50;32.50;55.80
25554;DHT22;13446;50.926;5.332;2022-09-13T09:50:22;32.10;56.80
25554;DHT22;13446;50.926;5.332;2022-09-13T09:58:06;31.50;58.40
25554;DHT22;13446;50.926;5.332;2022-09-13T10:00:34;32.30;57.80
25554;DHT22;13446;50.926;5.332;2022-09-13T10:03:03;33.00;56.50
25554;DHT22;13446;50.926;5.332;2022-09-13T10:05:30;34.20;53.80
25554;DHT22;13446;50.926;5.332;2022-09-13T10:07:57;35.80;51.90
25554;DHT22;13446;50.926;5.332;2022-09-13T10:10:35;36.00;50.80
25554;DHT22;13446;50.926;5.332;2022-09-13T10:13:01;36.90;49.30
25554;DHT22;13446;50.926;5.332;2022-09-13T10:15:30;38.10;47.80
25554;DHT22;13446;50.926;5.332;2022-09-13T10:17:59;38.90;45.30
25554;DHT22;13446;50.926;5.332;2022-09-13T10:20:26;38.10;46.80
25554;DHT22;13446;50.926;5.332;2022-09-13T10:25:36;38.40;46.20
25554;DHT22;13446;50.926;5.332;2022-09-13T10:28:02;37.60;45.80
25554;DHT22;13446;50.926;5.332;2022-09-13T10:30:36;35.40;48.90
25554;DHT22;13446;50.926;5.332;2022-09-13T10:33:02;35.20;49.20
25554;DHT22;13446;50.926;5.332;2022-09-13T10:35:28;34.40;50.60
25554;DHT22;13446;50.926;5.332;2022-09-13T10:37:54;34.00;51.40
25554;DHT22;13446;50.926;5.332;2022-09-13T10:40:32;33.60;52.20
25554;DHT22;13446;50.926;5.332;2022-09-13T10:42:59;33.50;52.70
25554;DHT22;13446;50.926;5.332;2022-09-13T10:45:27;34.10;52.40
25554;DHT22;13446;50.926;5.332;2022-09-13T10:47:58;33.70;52.80
25554;DHT22;13446;50.926;5.332;2022-09-13T10:50:28;34.20;51.60
25554;DHT22;13446;50.926;5.332;2022-09-13T10:52:59;34.50;51.60
25554;DHT22;13446;50.926;5.332;2022-09-13T10:57:51;34.70;50.90
25554;DHT22;13446;50.926;5.332;2022-09-13T11:00:19;34.80;50.60
25554;DHT22;13446;50.926;5.332;2022-09-13T11:05:19;34.40;51.20
25554;DHT22;13446;50.926;5.332;2022-09-13T11:13:13;33.10;53.20
25554;DHT22;13446;50.926;5.332;2022-09-13T11:36:21;34.10;52.60
25554;DHT22;13446;50.926;5.332;2022-09-13T11:39:12;33.70;52.90
25554;DHT22;13446;50.926;5.332;2022-09-13T11:46:54;32.60;57.00
25554;DHT22;13446;50.926;5.332;2022-09-13T11:52:21;32.90;57.20
25554;DHT22;13446;50.926;5.332;2022-09-13T11:54:57;33.00;56.30
25554;DHT22;13446;50.926;5.332;2022-09-13T11:57:26;33.40;55.30
25554;DHT22;13446;50.926;5.332;2022-09-13T11:59:54;34.40;54.00
25554;DHT22;13446;50.926;5.332;2022-09-13T12:02:26;35.10;52.10
25554;DHT22;13446;50.926;5.332;2022-09-13T12:04:55;34.80;52.00
25554;DHT22;13446;50.926;5.332;2022-09-13T12:07:27;35.30;52.10
25554;DHT22;13446;50.926;5.332;2022-09-13T12:09:57;35.50;51.70
25554;DHT22;13446;50.926;5.332;2022-09-13T12:12:25;36.40;50.70
25554;DHT22;13446;50.926;5.332;2022-09-13T12:14:58;37.10;49.80
25554;DHT22;13446;50.926;5.332;2022-09-13T12:17:26;37.90;48.50
25554;DHT22;13446;50.926;5.332;2022-09-13T12:19:53;38.70;46.70
25554;DHT22;13446;50.926;5.332;2022-09-13T12:22:22;37.80;47.20
25554;DHT22;13446;50.926;5.332;2022-09-13T12:24:55;37.10;47.80
25554;DHT22;13446;50.926;5.332;2022-09-13T12:27:26;36.90;49.50
25554;DHT22;13446;50.926;5.332;2022-09-13T12:29:54;36.90;47.40
25554;DHT22;13446;50.926;5.332;2022-09-13T12:32:20;36.30;48.10
25554;DHT22;13446;50.926;5.332;2022-09-13T12:34:57;35.30;49.10
25554;DHT22;13446;50.926;5.332;2022-09-13T12:50:40;32.60;55.60
25554;DHT22;13446;50.926;5.332;2022-09-13T12:58:47;33.00;54.90
25554;DHT22;13446;50.926;5.332;2022-09-13T13:01:20;33.00;54.50
25554;DHT22;13446;50.926;5.332;2022-09-13T13:08:50;32.20;55.60
25554;DHT22;13446;50.926;5.332;2022-09-13T13:11:18;31.90;56.20
25554;DHT22;13446;50.926;5.332;2022-09-13T13:16:39;31.50;57.20
25554;DHT22;13446;50.926;5.332;2022-09-13T13:19:34;31.30;57.60
25554;DHT22;13446;50.926;5.332;2022-09-13T13:24:46;31.10;58.40
25554;DHT22;13446;50.926;5.332;2022-09-13T13:27:45;31.00;59.30
25554;DHT22;13446;50.926;5.332;2022-09-13T13:33:04;30.80;59.90
25554;DHT22;13446;50.926;5.332;2022-09-13T13:35:30;30.70;60.30
25554;DHT22;13446;50.926;5.332;2022-09-13T13:38:12;30.10;62.30
25554;DHT22;13446;50.926;5.332;2022-09-13T13:40:38;29.60;64.90
25554;DHT22;13446;50.926;5.332;2022-09-13T13:45:58;29.70;66.80
25554;DHT22;13446;50.926;5.332;2022-09-13T13:48:35;30.10;67.10
25554;DHT22;13446;50.926;5.332;2022-09-13T13:53:39;30.30;65.10
25554;DHT22;13446;50.926;5.332;2022-09-13T13:56:21;30.30;64.80
25554;DHT22;13446;50.926;5.332;2022-09-13T13:58:50;30.30;65.70
25554;DHT22;13446;50.926;5.332;2022-09-13T14:01:26;30.20;66.20
25554;DHT22;13446;50.926;5.332;2022-09-13T14:06:30;29.70;69.60
25554;DHT22;13446;50.926;5.332;2022-09-13T14:16:46;29.20;80.30
25554;DHT22;13446;50.926;5.332;2022-09-13T14:19:26;28.80;80.90
25554;DHT22;13446;50.926;5.332;2022-09-13T14:24:36;28.90;83.70
25554;DHT22;13446;50.926;5.332;2022-09-13T14:27:02;28.80;84.00
25554;DHT22;13446;50.926;5.332;2022-09-13T14:29:28;28.70;84.90
25554;DHT22;13446;50.926;5.332;2022-09-13T14:31:55;28.50;85.50
25554;DHT22;13446;50.926;5.332;2022-09-13T14:34:36;28.50;85.70
25554;DHT22;13446;50.926;5.332;2022-09-13T14:37:04;28.40;86.40
25554;DHT22;13446;50.926;5.332;2022-09-13T14:39:31;28.40;87.40
25554;DHT22;13446;50.926;5.332;2022-09-13T14:42:10;28.40;87.10
25554;DHT22;13446;50.926;5.332;2022-09-13T14:44:36;28.20;87.00
25554;DHT22;13446;50.926;5.332;2022-09-13T14:47:04;28.10;88.80
25554;DHT22;13446;50.926;5.332;2022-09-13T14:49:32;28.00;90.10
25554;DHT22;13446;50.926;5.332;2022-09-13T14:52:04;28.10;90.70
25554;DHT22;13446;50.926;5.332;2022-09-13T14:57:25;28.00;92.00
25554;DHT22;13446;50.926;5.332;2022-09-13T14:59:54;27.80;92.10
25554;DHT22;13446;50.926;5.332;2022-09-13T15:02:25;27.80;93.70
25554;DHT22;13446;50.926;5.332;2022-09-13T15:04:54;27.80;94.10
25554;DHT22;13446;50.926;5.332;2022-09-13T15:07:21;27.70;95.80
25554;DHT22;13446;50.926;5.332;2022-09-13T15:09:48;27.60;97.40
25554;DHT22;13446;50.926;5.332;2022-09-13T15:12:24;27.50;98.90
25554;DHT22;13446;50.926;5.332;2022-09-13T15:20:21;26.70;99.90
25554;DHT22;13446;50.926;5.332;2022-09-13T15:22:47;26.60;99.90
25554;DHT22;13446;50.926;5.332;2022-09-13T15:25:17;26.40;99.90
25554;DHT22;13446;50.926;5.332;2022-09-13T15:27:44;26.40;99.90
25554;DHT22;13446;50.926;5.332;2022-09-13T15:30:27;26.30;99.90
25554;DHT22;13446;50.926;5.332;2022-09-13T15:35:38;26.30;99.90
25554;DHT22;13446;50.926;5.332;2022-09-13T15:40:46;26.20;99.90
25554;DHT22;13446;50.926;5.332;2022-09-13T15:43:12;26.10;99.90
25554;DHT22;13446;50.926;5.332;2022-09-13T15:45:37;26.10;99.90
25554;DHT22;13446;50.926;5.332;2022-09-13T15:48:03;26.10;99.90
25554;DHT22;13446;50.926;5.332;2022-09-13T15:50:29;26.10;99.90
25554;DHT22;13446;50.926;5.332;2022-09-13T15:52:59;25.90;99.90
25554;DHT22;13446;50.926;5.332;2022-09-13T15:55:25;25.90;99.90
25554;DHT22;13446;50.926;5.332;2022-09-13T15:57:51;25.70;99.90
25554;DHT22;13446;50.926;5.332;2022-09-13T16:00:18;25.70;99.90
25554;DHT22;13446;50.926;5.332;2022-09-13T16:02:44;25.70;99.90
25554;DHT22;13446;50.926;5.332;2022-09-13T16:05:10;25.50;99.90
25554;DHT22;13446;50.926;5.332;2022-09-13T16:07:36;25.50;99.90
25554;DHT22;13446;50.926;5.332;2022-09-13T16:10:02;25.60;99.90
25554;DHT22;13446;50.926;5.332;2022-09-13T16:12:28;25.60;99.90
25554;DHT22;13446;50.926;5.332;2022-09-13T16:14:54;25.30;99.90
25554;DHT22;13446;50.926;5.332;2022-09-13T16:17:20;25.10;99.90
25554;DHT22;13446;50.926;5.332;2022-09-13T16:19:46;25.30;99.90
25554;DHT22;13446;50.926;5.332;2022-09-13T16:22:12;25.10;99.90
25554;DHT22;13446;50.926;5.332;2022-09-13T16:24:37;24.90;99.90
25554;DHT22;13446;50.926;5.332;2022-09-13T16:27:03;24.40;99.90
25554;DHT22;13446;50.926;5.332;2022-09-13T16:29:29;24.30;99.90
25554;DHT22;13446;50.926;5.332;2022-09-13T16:31:54;24.30;99.90
25554;DHT22;13446;50.926;5.332;2022-09-13T16:34:22;24.50;99.90
25554;DHT22;13446;50.926;5.332;2022-09-13T16:36:47;24.40;99.90
25554;DHT22;13446;50.926;5.332;2022-09-13T16:39:13;24.40;99.90
25554;DHT22;13446;50.926;5.332;2022-09-13T16:41:38;24.40;99.90
25554;DHT22;13446;50.926;5.332;2022-09-13T16:47:04;23.90;99.90
25554;DHT22;13446;50.926;5.332;2022-09-13T16:52:01;24.20;99.90
25554;DHT22;13446;50.926;5.332;2022-09-13T16:54:28;24.30;99.90
25554;DHT22;13446;50.926;5.332;2022-09-13T16:56:58;24.20;99.90
25554;DHT22;13446;50.926;5.332;2022-09-13T16:59:24;24.10;99.90
25554;DHT22;13446;50.926;5.332;2022-09-13T17:01:50;24.10;99.90
25554;DHT22;13446;50.926;5.332;2022-09-13T17:04:16;23.90;99.90
25554;DHT22;13446;50.926;5.332;2022-09-13T17:06:42;23.80;99.90
25554;DHT22;13446;50.926;5.332;2022-09-13T17:09:08;23.60;99.90
25554;DHT22;13446;50.926;5.332;2022-09-13T17:11:35;23.60;99.90
25554;DHT22;13446;50.926;5.332;2022-09-13T17:14:01;23.50;99.90
25554;DHT22;13446;50.926;5.332;2022-09-13T17:16:32;23.20;99.90
25554;DHT22;13446;50.926;5.332;2022-09-13T17:18:58;23.20;99.90
25554;DHT22;13446;50.926;5.332;2022-09-13T17:21:25;23.00;99.90
25554;DHT22;13446;50.926;5.332;2022-09-13T17:23:51;22.80;99.90
25554;DHT22;13446;50.926;5.332;2022-09-13T17:26:17;22.90;99.90
25554;DHT22;13446;50.926;5.332;2022-09-13T17:28:42;22.70;99.90
25554;DHT22;13446;50.926;5.332;2022-09-13T17:31:08;22.60;99.90
25554;DHT22;13446;50.926;5.332;2022-09-13T17:33:34;22.60;99.90
25554;DHT22;13446;50.926;5.332;2022-09-13T17:36:01;22.60;99.90
25554;DHT22;13446;50.926;5.332;2022-09-13T17:38:27;22.70;99.90
25554;DHT22;13446;50.926;5.332;2022-09-13T17:40:59;22.60;99.90
25554;DHT22;13446;50.926;5.332;2022-09-13T17:43:25;22.50;99.90
25554;DHT22;13446;50.926;5.332;2022-09-13T17:45:51;22.40;99.90
25554;DHT22;13446;50.926;5.332;2022-09-13T17:48:16;22.40;99.90
25554;DHT22;13446;50.926;5.332;2022-09-13T17:50:42;22.30;99.90
25554;DHT22;13446;50.926;5.332;2022-09-13T17:53:08;22.30;99.90
25554;DHT22;13446;50.926;5.332;2022-09-13T17:55:34;22.30;99.90
25554;DHT22;13446;50.926;5.332;2022-09-13T17:57:59;22.30;99.90
25554;DHT22;13446;50.926;5.332;2022-09-13T18:00:24;22.30;99.90
25554;DHT22;13446;50.926;5.332;2022-09-13T18:02:50;22.30;99.90
25554;DHT22;13446;50.926;5.332;2022-09-13T18:05:16;22.10;99.90
25554;DHT22;13446;50.926;5.332;2022-09-13T18:07:42;22.10;99.90
25554;DHT22;13446;50.926;5.332;2022-09-13T18:10:07;22.10;99.90
25554;DHT22;13446;50.926;5.332;2022-09-13T18:12:33;21.90;99.90
25554;DHT22;13446;50.926;5.332;2022-09-13T18:14:58;21.80;99.90
25554;DHT22;13446;50.926;5.332;2022-09-13T18:17:25;21.90;99.90
25554;DHT22;13446;50.926;5.332;2022-09-13T18:19:50;22.00;99.90
25554;DHT22;13446;50.926;5.332;2022-09-13T18:22:16;21.90;99.90
25554;DHT22;13446;50.926;5.332;2022-09-13T18:24:41;21.90;99.90
25554;DHT22;13446;50.926;5.332;2022-09-13T18:27:07;21.90;99.90
25554;DHT22;13446;50.926;5.332;2022-09-13T18:29:33;21.90;99.90
25554;DHT22;13446;50.926;5.332;2022-09-13T18:31:58;22.00;99.90
25554;DHT22;13446;50.926;5.332;2022-09-13T18:34:24;22.00;99.90
25554;DHT22;13446;50.926;5.332;2022-09-13T18:36:50;22.00;99.90
25554;DHT22;13446;50.926;5.332;2022-09-13T18:39:18;21.90;99.90
25554;DHT22;13446;50.926;5.332;2022-09-13T18:41:44;21.90;99.90
25554;DHT22;13446;50.926;5.332;2022-09-13T18:44:11;21.90;99.90
25554;DHT22;13446;50.926;5.332;2022-09-13T18:46:37;21.70;99.90